Time;durP1;ratioP1;P1;durP2;ratioP2;P2;SDS_P1;SDS_P2;PMS_P1;PMS_P2;Temp;Humidity;BMP_temperature;BMP_pressure;BME280_temperature;BME280_humidity;BME280_pressure;Samples;Min_cycle;Max_cycle;Signal;HPM_P1;HPM_P2
2022/11/16 00:00:05;;;;;;;11.00;6.50;;;;;;;6.07;100.00;94603.50;1030756;28;20082;-71
2022/11/16 00:00:35;;;;;;;12.60;6.88;;;;;;;6.07;100.00;94603.50;1026863;28;20022;-71
2022/11/16 00:01:13;;;;;;;11.45;6.30;;;;;;;6.04;100.00;94598.84;1031326;28;20360;-71
2022/11/16 00:01:44;;;;;;;11.05;6.78;;;;;;;5.99;100.00;94594.41;1031838;28;20026;-71
2022/11/16 00:02:14;;;;;;;9.65;6.18;;;;;;;6.05;100.00;94605.59;1031282;28;20827;-70
2022/11/16 00:02:46;;;;;;;10.85;6.38;;;;;;;6.04;100.00;94602.22;1026587;28;20026;-70
2022/11/16 00:03:17;;;;;;;9.88;6.07;;;;;;;6.04;100.00;94604.06;1023252;28;20132;-71
2022/11/16 00:03:49;;;;;;;9.85;5.38;;;;;;;6.05;100.00;94600.41;1027356;28;20387;-71
2022/11/16 00:04:20;;;;;;;11.88;5.82;;;;;;;5.98;100.00;94592.06;1032073;28;20024;-71
2022/11/16 00:04:50;;;;;;;8.63;5.88;;;;;;;6.03;100.00;94597.25;1035524;28;20277;-70
2022/11/16 00:05:21;;;;;;;11.82;6.35;;;;;;;6.04;100.00;94598.84;1038407;28;20479;-70
2022/11/16 00:05:58;;;;;;;8.77;5.50;;;;;;;6.03;100.00;94603.25;1035022;28;20029;-70
2022/11/16 00:06:29;;;;;;;9.40;5.90;;;;;;;5.98;100.00;94594.69;1035861;28;20018;-71
2022/11/16 00:07:01;;;;;;;16.75;6.38;;;;;;;6.01;100.00;94594.94;1034622;28;20272;-71
2022/11/16 00:07:31;;;;;;;11.07;6.30;;;;;;;6.02;100.00;94598.31;1039297;28;20064;-70
2022/11/16 00:08:02;;;;;;;13.23;6.72;;;;;;;6.05;100.00;94595.19;1039163;28;20279;-71
2022/11/16 00:08:34;;;;;;;11.15;5.47;;;;;;;6.02;100.00;94599.09;1042720;28;20033;-71
2022/11/16 00:09:25;;;;;;;10.38;6.22;;;;;;;6.05;100.00;94605.59;1039072;28;20033;-71
2022/11/16 00:09:55;;;;;;;;;;;;;;;6.04;100.00;94604.81;1039066;28;20299;-71
2022/11/16 00:10:26;;;;;;;12.80;5.80;;;;;;;6.04;100.00;94602.22;1039020;28;19952;-71
2022/11/16 00:11:07;;;;;;;9.38;5.88;;;;;;;5.98;100.00;94592.84;1039137;28;20029;-71
2022/11/16 00:11:38;;;;;;;15.02;6.10;;;;;;;6.02;100.00;94600.91;1035229;28;20030;-71
2022/11/16 00:12:11;;;;;;;10.60;6.30;;;;;;;6.01;100.00;94601.97;1034437;28;20277;-70
2022/11/16 00:12:41;;;;;;;12.90;6.60;;;;;;;6.02;100.00;94603.50;1035826;28;20559;-70
2022/11/16 00:13:12;;;;;;;13.43;6.22;;;;;;;6.03;100.00;94607.69;1039491;28;20260;-71
2022/11/16 00:13:42;;;;;;;9.82;6.40;;;;;;;6.02;100.00;94601.69;1039328;28;20029;-70
2022/11/16 00:14:13;;;;;;;12.40;6.43;;;;;;;6.02;100.00;94606.91;1034442;28;20108;-70
2022/11/16 00:14:43;;;;;;;12.95;6.65;;;;;;;6.02;100.00;94600.91;1035250;28;20030;-71
2022/11/16 00:15:14;;;;;;;11.82;5.90;;;;;;;6.01;100.00;94600.13;1034577;28;20026;-70
2022/11/16 00:15:54;;;;;;;9.70;6.35;;;;;;;5.99;100.00;94602.22;1035213;28;20104;-71
2022/11/16 00:16:24;;;;;;;9.80;6.22;;;;;;;5.97;100.00;94590.50;1034297;28;20029;-71
2022/11/16 00:16:55;;;;;;;10.43;6.93;;;;;;;6.00;100.00;94602.97;1030642;28;20116;-70
2022/11/16 00:17:26;;;;;;;12.40;6.32;;;;;;;6.00;100.00;94597.78;1028493;28;20023;-71
2022/11/16 00:17:56;;;;;;;13.80;6.22;;;;;;;6.02;100.00;94598.31;1031061;28;20066;-71
2022/11/16 00:18:27;;;;;;;11.73;6.30;;;;;;;5.99;100.00;94598.81;1035029;28;20022;-71
2022/11/16 00:18:59;;;;;;;10.45;5.90;;;;;;;5.93;100.00;94598.03;1030896;28;20022;-70
2022/11/16 00:19:30;;;;;;;12.00;7.18;;;;;;;5.98;100.00;94602.47;1026768;28;20037;-70
2022/11/16 00:20:00;;;;;;;12.52;7.30;;;;;;;5.99;100.00;94601.44;1024284;28;20270;-70
2022/11/16 00:20:30;;;;;;;11.30;6.32;;;;;;;6.01;100.00;94601.97;1023288;28;20027;-70
2022/11/16 00:21:03;;;;;;;13.77;6.82;;;;;;;5.99;100.00;94602.22;1030967;28;20030;-70
2022/11/16 00:21:33;;;;;;;10.98;6.00;;;;;;;6.01;100.00;94599.34;1031341;28;20050;-69
2022/11/16 00:22:04;;;;;;;9.73;6.30;;;;;;;6.02;100.00;94601.69;1030866;28;20278;-70
2022/11/16 00:22:34;;;;;;;13.02;6.30;;;;;;;6.01;100.00;94600.13;1032714;28;20097;-70
2022/11/16 00:23:04;;;;;;;11.45;6.65;;;;;;;6.01;100.00;94597.53;1030899;28;20027;-70
2022/11/16 00:23:37;;;;;;;11.82;7.10;;;;;;;6.00;100.00;94601.19;1034846;28;20025;-71
2022/11/16 00:24:10;;;;;;;10.50;6.82;;;;;;;6.01;100.00;94599.34;1027992;28;20539;-70
2022/11/16 00:24:41;;;;;;;11.85;6.45;;;;;;;6.01;100.00;94604.56;1030397;28;20273;-70
2022/11/16 00:25:11;;;;;;;10.88;6.32;;;;;;;6.01;100.00;94600.13;1031558;28;20269;-70
2022/11/16 00:25:42;;;;;;;9.88;6.63;;;;;;;5.98;100.00;94602.47;1027466;28;20031;-70
2022/11/16 00:26:12;;;;;;;9.77;6.13;;;;;;;6.01;100.00;94600.13;1027105;28;20066;-70
2022/11/16 00:26:43;;;;;;;13.13;6.63;;;;;;;5.95;100.00;94590.00;1031124;28;20046;-71
2022/11/16 00:27:14;;;;;;;9.98;6.55;;;;;;;6.00;100.00;94598.59;1030752;28;20026;-69
2022/11/16 00:27:44;;;;;;;8.52;6.00;;;;;;;6.01;100.00;94609.78;1030393;28;20022;-72
2022/11/16 00:28:14;;;;;;;10.68;6.50;;;;;;;6.01;100.00;94599.34;1030741;28;20030;-70
2022/11/16 00:28:48;;;;;;;10.30;6.22;;;;;;;6.02;100.00;94606.13;1022468;28;20023;-70
2022/11/16 00:29:21;;;;;;;13.02;6.57;;;;;;;6.02;100.00;94608.72;1033287;28;20033;-70
2022/11/16 00:29:51;;;;;;;13.57;6.78;;;;;;;6.01;100.00;94605.34;1032548;28;21030;-71
2022/11/16 00:30:21;;;;;;;10.98;6.50;;;;;;;6.02;100.00;94606.13;1028325;28;20325;-70
2022/11/16 00:31:02;;;;;;;12.73;6.63;;;;;;;6.02;100.00;94600.91;1030704;28;20033;-70
2022/11/16 00:31:32;;;;;;;11.25;6.38;;;;;;;6.03;100.00;94607.69;1030822;28;20055;-70
2022/11/16 00:32:03;;;;;;;9.80;6.13;;;;;;;6.01;100.00;94600.13;1033966;28;20734;-71
2022/11/16 00:32:33;;;;;;;12.32;6.63;;;;;;;6.02;100.00;94601.69;1039185;28;20455;-70
2022/11/16 00:33:04;;;;;;;9.88;6.22;;;;;;;6.03;100.00;94599.88;1039338;28;20017;-70
2022/11/16 00:33:35;;;;;;;10.32;6.50;;;;;;;5.96;100.00;94587.09;1030721;28;20018;-69
2022/11/16 00:34:05;;;;;;;16.08;7.18;;;;;;;6.04;100.00;94599.63;1026462;28;20109;-69
2022/11/16 00:34:36;;;;;;;10.55;6.35;;;;;;;6.04;100.00;94598.84;1034824;28;20022;-70
2022/11/16 00:35:07;;;;;;;10.98;6.43;;;;;;;6.00;100.00;94592.56;1034442;28;20026;-70
2022/11/16 00:35:38;;;;;;;12.63;6.30;;;;;;;6.06;100.00;94596.75;1038569;28;20017;-70
2022/11/16 00:36:10;;;;;;;11.00;6.60;;;;;;;6.07;100.00;94598.28;1038659;28;20361;-70
2022/11/16 00:36:40;;;;;;;10.65;6.53;;;;;;;6.05;100.00;94595.97;1034173;28;20288;-70
2022/11/16 00:37:10;;;;;;;8.57;5.85;;;;;;;6.06;100.00;94599.34;1034253;28;20253;-70
2022/11/16 00:37:41;;;;;;;10.23;6.22;;;;;;;6.07;100.00;94598.28;1030883;28;20468;-70
2022/11/16 00:38:11;;;;;;;9.40;6.25;;;;;;;6.07;100.00;94598.28;1037308;28;20033;-70
2022/11/16 00:38:42;;;;;;;8.68;5.80;;;;;;;6.08;100.00;94599.88;1038453;28;20022;-70
2022/11/16 00:39:13;;;;;;;12.75;6.18;;;;;;;6.02;100.00;94585.28;1030553;28;20023;-70
2022/11/16 00:39:43;;;;;;;8.77;6.30;;;;;;;6.06;100.00;94596.75;1026527;28;20106;-70
2022/11/16 00:40:14;;;;;;;11.15;6.80;;;;;;;6.07;100.00;94596.50;1030418;28;20293;-70
2022/11/16 00:40:45;;;;;;;15.00;6.38;;;;;;;6.05;100.00;94595.97;1031339;28;20045;-70
2022/11/16 00:41:15;;;;;;;11.68;6.70;;;;;;;6.08;100.00;94597.28;1038416;28;20011;-70
2022/11/16 00:41:46;;;;;;;9.98;6.72;;;;;;;6.07;100.00;94598.28;1040902;28;20014;-71
2022/11/16 00:42:16;;;;;;;14.90;5.82;;;;;;;6.09;100.00;94598.81;1041811;28;20535;-71
2022/11/16 00:42:47;;;;;;;14.88;6.55;;;;;;;6.08;100.00;94599.88;1038146;28;20022;-70
2022/11/16 00:43:17;;;;;;;11.68;6.20;;;;;;;6.09;100.00;94596.22;1037240;28;20013;-71
2022/11/16 00:43:47;;;;;;;10.40;6.28;;;;;;;6.07;100.00;94593.09;1034548;28;20031;-71
2022/11/16 00:44:18;;;;;;;11.15;6.57;;;;;;;6.09;100.00;94598.81;1034235;28;20033;-70
2022/11/16 00:44:48;;;;;;;9.90;6.40;;;;;;;6.08;100.00;94592.06;1038322;28;20026;-69
2022/11/16 00:45:19;;;;;;;8.90;6.13;;;;;;;6.08;100.00;94595.44;1034825;28;20034;-70
2022/11/16 00:45:49;;;;;;;11.52;7.00;;;;;;;6.08;100.00;94594.66;1039233;28;20021;-70
2022/11/16 00:46:20;;;;;;;12.23;6.68;;;;;;;6.09;100.00;94593.63;1038338;28;20033;-70
2022/11/16 00:46:50;;;;;;;11.95;6.72;;;;;;;6.08;100.00;94594.66;1030747;28;20942;-71
2022/11/16 00:47:21;;;;;;;10.70;6.18;;;;;;;6.09;100.00;94596.22;1031030;28;20030;-70
2022/11/16 00:47:51;;;;;;;13.15;7.88;;;;;;;6.07;100.00;94593.88;1027267;28;20046;-71
2022/11/16 00:48:22;;;;;;;14.07;8.20;;;;;;;6.08;100.00;94589.47;1034349;28;20072;-70
2022/11/16 00:48:55;;;;;;;16.55;8.82;;;;;;;6.11;100.00;94594.16;1039365;28;20033;-71
2022/11/16 00:49:25;;;;;;;14.95;8.68;;;;;;;6.09;100.00;94588.41;1035261;28;20752;-70
2022/11/16 00:49:56;;;;;;;13.38;8.07;;;;;;;6.10;100.00;94595.97;1039248;28;20276;-71
2022/11/16 00:50:26;;;;;;;15.75;7.82;;;;;;;6.11;100.00;94591.53;1034663;28;20499;-70
2022/11/16 00:50:57;;;;;;;14.20;8.43;;;;;;;6.11;100.00;94594.91;1030825;28;20065;-71
2022/11/16 00:51:27;;;;;;;17.50;7.40;;;;;;;6.13;100.00;94599.84;1034980;28;20021;-70
2022/11/16 00:51:58;;;;;;;16.35;7.75;;;;;;;6.11;100.00;94594.91;1034743;28;20080;-71
2022/11/16 00:52:28;;;;;;;12.80;7.50;;;;;;;6.11;100.00;94596.75;1033908;28;20030;-70
2022/11/16 00:52:59;;;;;;;13.13;7.47;;;;;;;6.11;100.00;94591.53;1034979;28;20506;-70
2022/11/16 00:53:29;;;;;;;13.50;7.13;;;;;;;6.12;100.00;94588.66;1031500;28;20124;-70
2022/11/16 00:54:00;;;;;;;11.85;6.72;;;;;;;6.10;100.00;94589.97;1034863;28;20034;-70
2022/11/16 00:54:30;;;;;;;21.55;7.60;;;;;;;6.13;100.00;94587.59;1030780;28;20551;-70
2022/11/16 00:55:01;;;;;;;12.40;7.28;;;;;;;6.14;100.00;94589.19;1034888;28;20041;-70
2022/11/16 00:55:31;;;;;;;11.40;6.82;;;;;;;6.10;100.00;94588.16;1034433;28;20030;-70
2022/11/16 00:56:02;;;;;;;9.88;6.65;;;;;;;6.07;100.00;94580.88;1034685;28;20037;-70
2022/11/16 00:56:32;;;;;;;11.07;6.97;;;;;;;6.06;100.00;94584.50;1038900;28;20033;-70
2022/11/16 00:57:03;;;;;;;13.50;7.25;;;;;;;6.01;100.00;94575.94;1038416;28;20033;-69
2022/11/16 00:57:35;;;;;;;11.10;6.85;;;;;;;6.10;100.00;94584.75;1042002;28;20124;-71
2022/11/16 00:58:05;;;;;;;13.30;7.22;;;;;;;6.10;100.00;94582.16;1034902;28;20271;-70
2022/11/16 00:58:35;;;;;;;13.00;6.95;;;;;;;6.08;100.00;94579.03;1037445;28;20271;-71
2022/11/16 00:59:09;;;;;;;13.18;7.22;;;;;;;6.05;100.00;94579.56;1035317;28;20117;-71
2022/11/16 00:59:39;;;;;;;10.75;6.47;;;;;;;6.07;100.00;94582.66;1039647;28;20638;-70
2022/11/16 01:00:10;;;;;;;13.02;6.28;;;;;;;6.08;100.00;94584.25;1042940;28;20033;-71
2022/11/16 01:00:41;;;;;;;13.50;7.45;;;;;;;6.08;100.00;94582.41;1039105;28;20060;-72
2022/11/16 01:01:11;;;;;;;11.05;6.78;;;;;;;6.12;100.00;94585.28;1034928;28;20033;-70
2022/11/16 01:01:42;;;;;;;12.88;6.93;;;;;;;6.12;100.00;94585.28;1038913;28;20632;-70
2022/11/16 01:02:12;;;;;;;12.70;6.55;;;;;;;6.09;100.00;94588.41;1037904;28;20025;-71
2022/11/16 01:02:42;;;;;;;13.40;7.40;;;;;;;6.07;100.00;94587.88;1039659;28;20025;-70
2022/11/16 01:03:13;;;;;;;11.65;6.38;;;;;;;6.07;100.00;94587.88;1038679;28;20030;-70
2022/11/16 01:03:43;;;;;;;9.93;6.18;;;;;;;6.06;100.00;94586.31;1039148;28;20032;-70
2022/11/16 01:04:14;;;;;;;10.93;6.93;;;;;;;6.08;100.00;94587.63;1039111;28;20966;-71
2022/11/16 01:04:44;;;;;;;11.50;6.93;;;;;;;6.07;100.00;94588.69;1039224;28;20029;-70
2022/11/16 01:05:15;;;;;;;11.05;6.82;;;;;;;6.05;100.00;94595.97;1039485;28;20029;-70
2022/11/16 01:05:45;;;;;;;10.18;6.70;;;;;;;6.04;100.00;94583.22;1034736;28;20099;-71
2022/11/16 01:06:16;;;;;;;11.57;6.57;;;;;;;6.03;100.00;94592.06;1026856;28;20529;-71
2022/11/16 01:06:46;;;;;;;10.90;6.57;;;;;;;6.03;100.00;94592.06;1022759;28;20049;-70
2022/11/16 01:07:16;;;;;;;12.10;6.47;;;;;;;6.00;100.00;94585.56;1026581;28;20034;-70
2022/11/16 01:07:47;;;;;;;11.35;7.38;;;;;;;5.97;100.00;94593.09;1031185;28;20033;-71
2022/11/16 01:08:17;;;;;;;10.50;7.00;;;;;;;5.97;100.00;94587.88;1030803;28;20026;-70
2022/11/16 01:08:48;;;;;;;12.73;7.35;;;;;;;5.97;100.00;94588.69;1034830;28;20026;-70
2022/11/16 01:09:18;;;;;;;10.57;6.72;;;;;;;5.99;100.00;94585.81;1031090;28;20499;-70
2022/11/16 01:09:49;;;;;;;10.90;6.70;;;;;;;5.96;100.00;94584.50;1034871;28;20021;-71
2022/11/16 01:10:21;;;;;;;11.63;7.00;;;;;;;6.02;100.00;94590.50;1039023;28;20391;-70
2022/11/16 01:10:51;;;;;;;13.98;7.57;;;;;;;6.02;100.00;94582.69;1034595;28;20026;-70
2022/11/16 01:12:11;;;;;;;10.63;6.82;;;;;;;6.02;100.00;94585.28;1029808;28;20060;-68
2022/11/16 01:12:42;;;;;;;12.25;7.32;;;;;;;5.99;100.00;94576.19;1031476;28;20298;-70
2022/11/16 01:13:12;;;;;;;9.63;6.07;;;;;;;5.98;100.00;94585.03;1030917;28;20038;-70
2022/11/16 01:13:43;;;;;;;14.43;7.05;;;;;;;5.99;100.00;94583.22;1033394;28;20025;-70
2022/11/16 01:14:13;;;;;;;12.02;7.80;;;;;;;6.01;100.00;94581.13;1030268;28;20023;-70
2022/11/16 01:14:45;;;;;;;13.13;7.20;;;;;;;6.00;100.00;94582.97;1034912;28;20064;-70
2022/11/16 01:15:16;;;;;;;11.25;7.25;;;;;;;6.01;100.00;94578.53;1034519;28;20108;-70
2022/11/16 01:15:47;;;;;;;13.23;6.78;;;;;;;6.02;100.00;94586.06;1034656;28;20798;-70
2022/11/16 01:16:19;;;;;;;13.38;7.28;;;;;;;6.01;100.00;94581.13;1026487;28;20277;-70
2022/11/16 01:16:49;;;;;;;12.10;7.50;;;;;;;5.99;100.00;94588.41;1027456;28;20472;-70
2022/11/16 01:17:20;;;;;;;13.25;7.40;;;;;;;5.99;100.00;94580.59;1031989;28;20300;-69
2022/11/16 01:17:51;;;;;;;10.10;6.72;;;;;;;5.99;100.00;94575.41;1034878;28;20729;-70
2022/11/16 01:18:21;;;;;;;11.15;6.55;;;;;;;6.01;100.00;94581.13;1030655;28;20412;-70
2022/11/16 01:18:52;;;;;;;11.95;7.07;;;;;;;5.97;100.00;94572.25;1027101;28;20030;-70
2022/11/16 01:19:23;;;;;;;11.85;6.88;;;;;;;6.00;100.00;94582.16;1034564;28;20114;-70
2022/11/16 01:19:53;;;;;;;10.18;6.68;;;;;;;6.01;100.00;94583.75;1035141;28;20268;-70
2022/11/16 01:20:26;;;;;;;10.13;6.65;;;;;;;6.01;100.00;94581.13;1038986;28;20059;-69
2022/11/16 01:20:56;;;;;;;12.55;7.15;;;;;;;6.01;100.00;94583.75;1034925;28;20034;-70
2022/11/16 01:21:26;;;;;;;11.88;7.03;;;;;;;6.00;100.00;94582.16;1035112;28;20284;-70
2022/11/16 01:21:57;;;;;;;15.90;7.50;;;;;;;5.98;100.00;94595.44;1026919;28;20089;-70
2022/11/16 01:22:27;;;;;;;11.75;7.32;;;;;;;6.00;100.00;94589.97;1024690;28;20027;-69
2022/11/16 01:22:58;;;;;;;11.82;7.32;;;;;;;5.99;100.00;94588.41;1024974;28;20030;-70
2022/11/16 01:23:28;;;;;;;9.68;6.90;;;;;;;5.99;100.00;94591.03;1030673;28;20026;-70
2022/11/16 01:23:59;;;;;;;13.07;7.55;;;;;;;5.99;100.00;94596.22;1026773;28;20077;-69
2022/11/16 01:24:29;;;;;;;11.88;7.45;;;;;;;5.95;100.00;94584.78;1026185;28;20560;-71
2022/11/16 01:25:00;;;;;;;12.23;7.40;;;;;;;5.99;100.00;94591.03;1022046;28;20023;-69
2022/11/16 01:25:30;;;;;;;13.98;7.53;;;;;;;5.98;100.00;94595.44;1026553;28;20026;-69
2022/11/16 01:26:01;;;;;;;13.77;8.38;;;;;;;5.97;100.00;94593.09;1032860;28;20030;-70
2022/11/16 01:26:31;;;;;;;14.93;7.90;;;;;;;5.96;100.00;94581.91;1034528;28;20085;-70
2022/11/16 01:27:02;;;;;;;13.63;7.90;;;;;;;5.88;100.00;94580.59;1038739;28;20083;-69
2022/11/16 01:27:32;;;;;;;12.27;7.30;;;;;;;5.93;100.00;94582.41;1035480;28;20046;-69
2022/11/16 01:28:02;;;;;;;12.43;7.75;;;;;;;5.94;100.00;94591.81;1034778;28;20036;-69
2022/11/16 01:28:33;;;;;;;11.57;7.43;;;;;;;5.91;100.00;94582.66;1030313;28;20035;-69
2022/11/16 01:29:03;;;;;;;10.93;7.18;;;;;;;5.88;100.00;94577.97;1026239;28;20042;-70
2022/11/16 01:29:34;;;;;;;15.48;8.15;;;;;;;5.89;100.00;94582.13;1026295;28;20026;-69
2022/11/16 01:30:06;;;;;;;10.63;7.35;;;;;;;5.87;100.00;94583.47;1026094;28;20086;-68
2022/11/16 01:30:36;;;;;;;12.57;7.72;;;;;;;5.89;100.00;94586.56;1026442;28;20126;-69
2022/11/16 01:31:07;;;;;;;11.63;7.53;;;;;;;5.89;100.00;94586.56;1030610;28;20276;-70
2022/11/16 01:31:38;;;;;;;13.48;8.27;;;;;;;5.88;100.00;94585.00;1030499;28;20022;-69
2022/11/16 01:32:08;;;;;;;12.80;7.50;;;;;;;5.88;100.00;94585.00;1030939;28;20269;-69
2022/11/16 01:32:39;;;;;;;12.27;7.05;;;;;;;5.91;100.00;94587.88;1030920;28;20022;-69
2022/11/16 01:33:09;;;;;;;10.63;6.97;;;;;;;5.90;100.00;94586.31;1034130;28;20028;-70
2022/11/16 01:33:40;;;;;;;14.38;7.68;;;;;;;5.90;100.00;94583.72;1042219;28;20556;-70
2022/11/16 01:34:10;;;;;;;11.48;7.07;;;;;;;5.89;100.00;94589.94;1034137;28;20669;-70
2022/11/16 01:34:47;;;;;;;9.98;7.00;;;;;;;5.87;100.00;94589.44;1038345;28;20029;-70
2022/11/16 01:35:17;;;;;;;10.95;7.50;;;;;;;5.92;100.00;94583.44;1030315;28;20027;-71
2022/11/16 01:35:48;;;;;;;20.65;7.47;;;;;;;5.95;100.00;94585.56;1032096;28;20277;-71
2022/11/16 01:36:18;;;;;;;10.00;6.53;;;;;;;5.95;100.00;94587.38;1030668;28;20098;-70
2022/11/16 01:36:48;;;;;;;12.15;7.07;;;;;;;5.96;100.00;94588.94;1030703;28;20030;-70
2022/11/16 01:37:19;;;;;;;15.18;7.65;;;;;;;5.94;100.00;94584.00;1030186;28;20476;-70
2022/11/16 01:37:49;;;;;;;14.60;7.45;;;;;;;5.93;100.00;94584.25;1030686;28;20018;-70
2022/11/16 01:38:20;;;;;;;14.52;8.20;;;;;;;5.93;100.00;94581.66;1038324;28;20033;-70
2022/11/16 01:38:50;;;;;;;13.30;7.93;;;;;;;5.94;100.00;94583.22;1030129;28;20030;-70
2022/11/16 01:39:21;;;;;;;12.27;6.97;;;;;;;5.94;100.00;94578.03;1022240;28;20030;-70
2022/11/16 01:39:51;;;;;;;12.35;7.35;;;;;;;5.91;100.00;94574.84;1022137;29;20023;-71
2022/11/16 01:40:22;;;;;;;11.35;6.43;;;;;;;5.94;100.00;94575.41;1022816;28;20020;-70
2022/11/16 01:40:52;;;;;;;13.98;6.80;;;;;;;5.94;100.00;94570.97;1022079;28;20035;-70
2022/11/16 01:41:23;;;;;;;11.02;7.40;;;;;;;5.76;100.00;94548.81;1030177;28;20026;-70
2022/11/16 01:41:54;;;;;;;11.73;7.03;;;;;;;5.90;100.00;94565.50;1030155;28;20543;-70
2022/11/16 01:42:26;;;;;;;13.82;7.75;;;;;;;5.92;100.00;94570.44;1029576;28;20324;-70
2022/11/16 01:42:56;;;;;;;9.88;6.57;;;;;;;5.89;100.00;94571.72;1030850;28;20022;-70
2022/11/16 01:43:26;;;;;;;12.95;7.15;;;;;;;5.90;100.00;94562.88;1032788;28;20270;-71
2022/11/16 01:44:32;;;;;;;14.38;7.00;;;;;;;5.88;100.00;94570.16;1034340;28;20042;-70
2022/11/16 01:45:15;;;;;;;13.07;7.50;;;;;;;5.87;100.00;94557.44;1023675;28;20039;-70
2022/11/16 01:45:46;;;;;;;11.27;6.95;;;;;;;5.88;100.00;94562.38;1024276;28;20267;-70
2022/11/16 01:46:16;;;;;;;14.40;7.15;;;;;;;5.86;100.00;94556.63;1026391;28;20278;-70
2022/11/16 01:46:47;;;;;;;12.00;7.07;;;;;;;5.87;100.00;94563.41;1023896;28;20031;-70
2022/11/16 01:47:17;;;;;;;12.52;7.15;;;;;;;5.77;100.00;94547.81;1026531;28;20031;-69
2022/11/16 01:47:48;;;;;;;10.07;6.95;;;;;;;5.87;100.00;94558.19;1026041;28;20049;-70
2022/11/16 01:48:21;;;;;;;13.73;6.82;;;;;;;5.78;100.00;94548.56;1029856;28;20027;-70
2022/11/16 01:48:56;;;;;;;11.52;7.13;;;;;;;5.84;100.00;94556.13;1026968;28;20019;-70
2022/11/16 01:49:28;;;;;;;10.60;7.28;;;;;;;5.66;100.00;94535.81;1018249;29;20275;-70
2022/11/16 01:50:03;;;;;;;11.50;6.97;;;;;;;5.87;100.00;94567.84;1030386;28;20312;-68
2022/11/16 01:50:33;;;;;;;11.60;7.57;;;;;;;5.85;100.00;94565.47;1026264;28;20380;-69
2022/11/16 01:51:04;;;;;;;8.43;6.60;;;;;;;5.85;100.00;94570.69;1022289;29;20334;-70
2022/11/16 01:51:34;;;;;;;10.82;6.88;;;;;;;5.89;100.00;94576.16;1022313;29;20011;-70
2022/11/16 01:52:06;;;;;;;10.38;6.90;;;;;;;5.89;100.00;94576.94;1021471;28;20784;-71
2022/11/16 01:52:41;;;;;;;12.02;7.40;;;;;;;5.84;100.00;94569.13;1025388;28;20022;-70
2022/11/16 01:53:12;;;;;;;10.60;7.05;;;;;;;5.87;100.00;94573.81;1027206;28;20286;-69
2022/11/16 01:53:42;;;;;;;12.60;7.68;;;;;;;5.84;100.00;94581.38;1025509;28;20866;-70
2022/11/16 01:54:13;;;;;;;12.18;7.80;;;;;;;5.86;100.00;94585.25;1026541;28;20027;-70
2022/11/16 01:54:44;;;;;;;15.90;6.95;;;;;;;5.88;100.00;94580.59;1022433;28;20023;-69
2022/11/16 01:55:15;;;;;;;10.10;6.65;;;;;;;5.86;100.00;94576.66;1022619;28;20050;-70
2022/11/16 01:55:45;;;;;;;12.30;6.68;;;;;;;5.89;100.00;94582.13;1019100;28;20274;-70
2022/11/16 01:56:16;;;;;;;10.43;7.10;;;;;;;5.87;100.00;94580.84;1022515;28;20023;-70
2022/11/16 01:56:46;;;;;;;11.60;7.00;;;;;;;5.89;100.00;94579.53;1022568;29;20031;-70
2022/11/16 01:57:19;;;;;;;11.05;7.07;;;;;;;5.88;100.00;94580.59;1026260;28;20023;-70
2022/11/16 01:57:50;;;;;;;11.00;7.38;;;;;;;5.88;100.00;94572.78;1026220;28;20030;-70
2022/11/16 01:58:22;;;;;;;11.27;7.03;;;;;;;5.86;100.00;94572.25;1026920;28;20279;-70
2022/11/16 01:58:52;;;;;;;14.38;6.93;;;;;;;5.83;100.00;94572.75;1026341;28;20027;-70
2022/11/16 01:59:23;;;;;;;10.13;6.95;;;;;;;5.84;100.00;94573.56;1030345;28;20268;-70
2022/11/16 01:59:55;;;;;;;13.80;7.15;;;;;;;5.85;100.00;94569.91;1030483;28;20904;-71
2022/11/16 02:00:29;;;;;;;10.75;7.18;;;;;;;5.82;100.00;94566.00;1030434;28;20026;-70
2022/11/16 02:00:59;;;;;;;12.40;7.65;;;;;;;5.81;100.00;94569.66;1031557;28;20300;-70
2022/11/16 02:01:32;;;;;;;14.48;8.18;;;;;;;5.79;100.00;94566.53;1029949;28;20348;-70
2022/11/16 02:02:03;;;;;;;13.98;7.95;;;;;;;5.79;100.00;94568.34;1027302;28;20973;-70
2022/11/16 02:02:33;;;;;;;11.60;7.50;;;;;;;5.80;100.00;94572.50;1021579;29;20145;-70
2022/11/16 02:03:04;;;;;;;13.02;7.63;;;;;;;5.79;100.00;94566.53;1026248;28;20046;-71
2022/11/16 02:03:36;;;;;;;12.50;6.82;;;;;;;5.75;100.00;94560.28;1026527;28;20504;-69
2022/11/16 02:04:09;;;;;;;12.30;7.30;;;;;;;5.76;100.00;94555.84;1032285;28;20038;-70
2022/11/16 02:04:40;;;;;;;12.43;7.65;;;;;;;5.80;100.00;94559.50;1027317;28;20269;-69
2022/11/16 02:05:12;;;;;;;10.88;7.28;;;;;;;5.77;100.00;94558.22;1030745;28;20278;-70
2022/11/16 02:06:12;;;;;;;12.20;7.88;;;;;;;5.79;100.00;94561.31;1030244;28;20499;-70
2022/11/16 02:06:45;;;;;;;12.07;7.80;;;;;;;5.79;100.00;94563.16;1030614;28;20289;-70
2022/11/16 02:09:52;;;;;;;14.40;8.70;;;;;;;5.77;100.00;94558.22;1030802;28;20031;-70
2022/11/16 02:09:54;;;;;;;11.63;7.43;;;;;;;5.76;100.00;94561.06;1036027;28;20686;-69
2022/11/16 02:10:43;;;;;;;12.57;7.93;;;;;;;5.76;100.00;94567.03;1034735;28;20033;-69
2022/11/16 02:11:42;;;;;;;12.63;7.25;;;;;;;5.77;100.00;94568.63;1036529;28;20315;-70
2022/11/16 02:12:37;;;;;;;13.48;7.53;;;;;;;5.77;100.00;94563.41;1032192;28;20272;-69
2022/11/16 02:13:18;;;;;;;12.43;7.28;;;;;;;5.76;100.00;94566.25;1033393;28;20785;-69
2022/11/16 02:13:57;;;;;;;13.40;7.38;;;;;;;5.76;100.00;94567.03;1031358;28;20694;-70
2022/11/16 02:14:41;;;;;;;14.10;7.30;;;;;;;5.79;100.00;94570.94;1038527;28;20260;-70
2022/11/16 02:15:30;;;;;;;11.90;7.47;;;;;;;5.78;100.00;94574.59;1037974;28;20381;-70
2022/11/16 02:16:11;;;;;;;11.32;7.13;;;;;;;5.80;100.00;94582.91;1034540;28;20865;-71
2022/11/16 02:16:56;;;;;;;16.13;8.85;;;;;;;5.79;100.00;94583.97;1030256;28;20368;-70
2022/11/16 02:17:45;;;;;;;14.15;7.97;;;;;;;5.76;100.00;94587.88;1028411;28;20262;-70
2022/11/16 02:18:21;;;;;;;12.15;7.40;;;;;;;5.75;100.00;94595.94;1031320;28;20254;-70
2022/11/16 02:19:00;;;;;;;11.55;7.60;;;;;;;5.75;100.00;94596.72;1034310;28;20268;-70
2022/11/16 02:19:56;;;;;;;16.45;7.78;;;;;;;5.72;100.00;94594.63;1029801;28;20275;-69
2022/11/16 02:21:02;;;;;;;19.65;8.85;;;;;;;5.73;100.00;94590.97;1030674;28;20882;-69
2022/11/16 02:21:39;;;;;;;11.65;7.35;;;;;;;5.77;100.00;94589.44;1034550;28;20252;-70
2022/11/16 02:22:22;;;;;;;12.30;6.65;;;;;;;5.77;100.00;94589.44;1035874;28;20815;-69
2022/11/16 02:23:30;;;;;;;13.23;7.80;;;;;;;5.77;100.00;94579.03;1026177;28;20254;-69
2022/11/16 02:24:07;;;;;;;12.30;7.13;;;;;;;5.81;100.00;94582.66;1025032;28;21007;-70
2022/11/16 02:24:50;;;;;;;18.20;7.03;;;;;;;5.77;100.00;94586.84;1031717;28;20260;-69
2022/11/16 02:25:38;;;;;;;11.88;7.03;;;;;;;5.76;100.00;94581.88;1038500;28;20272;-70
2022/11/16 02:26:50;;;;;;;14.10;7.18;;;;;;;5.75;100.00;94586.31;1037490;28;20272;-70
2022/11/16 02:27:45;;;;;;;13.77;6.68;;;;;;;5.74;100.00;94576.19;1035215;28;20276;-69
2022/11/16 02:28:28;;;;;;;11.85;7.22;;;;;;;5.77;100.00;94584.25;1033982;28;20952;-69
2022/11/16 02:29:36;;;;;;;10.80;6.63;;;;;;;5.80;100.00;94580.31;1034128;28;20253;-70
2022/11/16 02:30:06;;;;;;;10.50;6.78;;;;;;;5.80;100.00;94578.50;1031046;28;20819;-71
2022/11/16 02:30:37;;;;;;;9.60;6.18;;;;;;;5.82;100.00;94581.63;1036249;28;20261;-70
2022/11/16 02:31:09;;;;;;;13.10;7.68;;;;;;;5.83;100.00;94585.78;1038396;28;20085;-71
2022/11/16 02:31:42;;;;;;;12.15;7.18;;;;;;;5.86;100.00;94585.25;1029894;28;20761;-70
2022/11/16 02:32:25;;;;;;;10.15;6.78;;;;;;;5.82;100.00;94583.44;1025503;28;20270;-69
2022/11/16 02:32:59;;;;;;;10.93;7.13;;;;;;;5.79;100.00;94586.56;1024991;28;20250;-70
2022/11/16 02:33:33;;;;;;;11.80;7.25;;;;;;;5.74;100.00;94568.38;1029650;28;20280;-70
2022/11/16 02:34:04;;;;;;;14.75;8.23;;;;;;;5.80;100.00;94583.72;1021794;28;20314;-70
2022/11/16 02:34:49;;;;;;;10.98;6.93;;;;;;;5.74;100.00;94571.75;1025978;28;20273;-70
2022/11/16 02:35:55;;;;;;;12.30;6.95;;;;;;;5.79;100.00;94571.72;1030421;28;20425;-70
2022/11/16 02:36:25;;;;;;;13.80;7.03;;;;;;;5.72;100.00;94558.19;1032593;28;20707;-69
2022/11/16 02:36:56;;;;;;;12.52;7.65;;;;;;;5.81;100.00;94571.47;1030941;28;20280;-70
2022/11/16 02:37:27;;;;;;;13.25;7.10;;;;;;;5.77;100.00;94568.63;1023481;28;20034;-69